Time;durP1;ratioP1;P1;durP2;ratioP2;P2;SDS_P1;SDS_P2;PMS_P1;PMS_P2;Temp;Humidity;BMP_temperature;BMP_pressure;BME280_temperature;BME280_humidity;BME280_pressure;Samples;Min_cycle;Max_cycle;Signal;HPM_P1;HPM_P2
2023/11/10 00:00:11;;;;;;;1.30;0.80;;;11.70;99.90;;;;;;5101042;28;20685;-60
2023/11/10 00:02:39;;;;;;;2.63;1.03;;;11.70;99.90;;;;;;5102835;28;20206;-61
2023/11/10 00:05:06;;;;;;;1.13;0.90;;;11.80;99.90;;;;;;5101257;28;20561;-61
2023/11/10 00:07:35;;;;;;;0.60;0.60;;;11.60;99.90;;;;;;5099194;28;20443;-61
2023/11/10 00:10:02;;;;;;;1.87;0.83;;;11.60;99.90;;;;;;5100089;28;20220;-61
2023/11/10 00:12:29;;;;;;;1.17;0.70;;;11.70;99.90;;;;;;5102331;28;20579;-61
2023/11/10 00:14:57;;;;;;;2.10;0.83;;;11.70;99.90;;;;;;5102834;28;20216;-61
2023/11/10 00:17:24;;;;;;;2.70;0.70;;;11.70;99.90;;;;;;5091157;28;20287;-60
2023/11/10 00:19:50;;;;;;;3.00;1.17;;;11.80;99.90;;;;;;5098841;28;20328;-61
2023/11/10 00:22:17;;;;;;;0.77;0.60;;;11.80;99.90;;;;;;5101601;28;20214;-61
2023/11/10 00:24:46;;;;;;;1.53;0.87;;;11.80;99.90;;;;;;5102036;28;20203;-61
2023/11/10 00:27:13;;;;;;;1.63;0.90;;;11.80;99.90;;;;;;5100629;28;20215;-61
2023/11/10 00:29:41;;;;;;;1.63;1.13;;;11.80;99.90;;;;;;5099114;28;20681;-61
2023/11/10 00:32:08;;;;;;;1.80;0.97;;;11.70;99.90;;;;;;5100304;28;20677;-61
2023/11/10 00:34:35;;;;;;;1.20;1.10;;;11.30;99.90;;;;;;5101679;28;20592;-61
2023/11/10 00:37:01;;;;;;;1.43;1.00;;;11.00;99.90;;;;;;5104296;28;20259;-61
2023/11/10 00:39:29;;;;;;;1.63;1.00;;;10.80;99.90;;;;;;5103078;28;20231;-61
2023/11/10 00:41:57;;;;;;;0.97;0.90;;;10.80;99.90;;;;;;5102805;28;20224;-60
2023/11/10 00:44:24;;;;;;;1.13;1.03;;;10.90;99.90;;;;;;5094554;28;20238;-61
2023/11/10 00:46:51;;;;;;;2.23;0.80;;;10.90;99.90;;;;;;5102970;28;20208;-62
2023/11/10 00:49:18;;;;;;;3.87;1.20;;;11.00;99.90;;;;;;5105224;28;20720;-61
2023/11/10 00:51:45;;;;;;;1.30;0.80;;;11.10;99.90;;;;;;5106517;28;20204;-61
2023/11/10 00:54:12;;;;;;;1.97;1.10;;;11.10;99.90;;;;;;5106212;28;20207;-62
2023/11/10 00:56:39;;;;;;;1.60;0.97;;;11.10;99.90;;;;;;5106203;28;20200;-61
2023/11/10 00:59:07;;;;;;;1.20;0.70;;;11.10;99.90;;;;;;5105062;28;20227;-61
2023/11/10 01:01:35;;;;;;;0.80;0.70;;;11.00;99.90;;;;;;5102558;28;20216;-61
2023/11/10 01:04:02;;;;;;;2.00;0.70;;;11.00;99.90;;;;;;5102665;28;20235;-62
2023/11/10 01:06:29;;;;;;;1.07;0.70;;;11.00;99.90;;;;;;5106197;28;20231;-62
2023/11/10 01:08:57;;;;;;;0.50;0.50;;;10.90;99.90;;;;;;5106002;28;20326;-61
2023/11/10 01:11:23;;;;;;;1.20;0.80;;;10.90;99.90;;;;;;5102479;28;20553;-61
2023/11/10 01:13:50;;;;;;;1.00;0.70;;;11.00;99.90;;;;;;5102159;28;20295;-61
2023/11/10 01:16:19;;;;;;;2.43;0.73;;;10.90;99.90;;;;;;5104564;28;20701;-61
2023/11/10 01:18:46;;;;;;;0.63;0.63;;;10.90;99.90;;;;;;5105539;28;20206;-61
2023/11/10 01:21:13;;;;;;;0.83;0.60;;;11.00;99.90;;;;;;5103074;28;20716;-61
2023/11/10 01:23:40;;;;;;;0.97;0.60;;;11.00;99.90;;;;;;5101920;28;20283;-61
2023/11/10 01:26:07;;;;;;;0.50;0.50;;;11.00;99.90;;;;;;5103156;28;20209;-61
2023/11/10 01:28:33;;;;;;;0.63;0.50;;;10.50;99.90;;;;;;5105638;28;20248;-61
2023/11/10 01:31:00;;;;;;;0.57;0.50;;;11.10;99.90;;;;;;5105137;28;20224;-61
2023/11/10 01:33:28;;;;;;;0.27;0.27;;;11.00;99.90;;;;;;5101907;28;20200;-61
2023/11/10 01:35:55;;;;;;;0.60;0.50;;;11.00;99.90;;;;;;5102482;28;20487;-61
2023/11/10 01:38:21;;;;;;;0.30;0.30;;;11.10;99.90;;;;;;5104844;28;20295;-61
2023/11/10 01:40:49;;;;;;;0.53;0.30;;;11.10;99.90;;;;;;5105370;28;20249;-61
2023/11/10 01:43:16;;;;;;;3.07;0.40;;;11.00;99.90;;;;;;5102737;28;20212;-61
2023/11/10 01:45:43;;;;;;;2.93;0.33;;;10.90;99.90;;;;;;5101661;28;20231;-61
2023/11/10 01:48:11;;;;;;;0.30;0.20;;;10.90;99.90;;;;;;5102671;28;20304;-61
2023/11/10 01:50:42;;;;;;;0.70;0.40;;;11.00;99.90;;;;;;5105361;28;20222;-63
2023/11/10 01:53:10;;;;;;;0.20;0.20;;;10.90;99.90;;;;;;5103844;28;20256;-60
2023/11/10 01:55:38;;;;;;;0.30;0.20;;;11.00;99.90;;;;;;5101994;28;20204;-60
2023/11/10 01:58:06;;;;;;;0.33;0.20;;;11.00;99.90;;;;;;5101985;28;20296;-62
2023/11/10 02:00:32;;;;;;;0.37;0.20;;;11.10;99.90;;;;;;5104724;28;20215;-60
2023/11/10 02:03:01;;;;;;;0.40;0.20;;;11.20;99.90;;;;;;5104970;28;20203;-60
2023/11/10 02:05:28;;;;;;;0.17;0.10;;;11.10;99.90;;;;;;5093351;28;20239;-59
2023/11/10 02:07:56;;;;;;;0.23;0.23;;;11.20;99.90;;;;;;5101355;28;20666;-60
2023/11/10 02:10:23;;;;;;;0.10;0.10;;;11.20;99.90;;;;;;5104250;28;20220;-60
2023/11/10 02:12:54;;;;;;;0.30;0.20;;;11.30;99.90;;;;;;5104638;28;20209;-61
2023/11/10 02:15:21;;;;;;;0.47;0.20;;;11.40;99.90;;;;;;5101930;28;20209;-61
2023/11/10 02:17:47;;;;;;;0.30;0.20;;;11.40;99.90;;;;;;5101429;28;20204;-61
2023/11/10 02:20:14;;;;;;;0.53;0.20;;;11.40;99.90;;;;;;5102618;28;20329;-61
2023/11/10 02:22:43;;;;;;;0.40;0.30;;;11.40;99.90;;;;;;5104381;28;20585;-61
2023/11/10 02:25:14;;;;;;;1.03;0.30;;;11.40;99.90;;;;;;5103011;28;20235;-62
2023/11/10 02:27:40;;;;;;;1.03;0.40;;;11.40;99.90;;;;;;5100970;28;20227;-61
2023/11/10 02:30:08;;;;;;;0.40;0.30;;;11.50;99.90;;;;;;5101652;28;20254;-61
2023/11/10 02:32:35;;;;;;;0.60;0.50;;;11.50;99.90;;;;;;5104188;28;20223;-62
2023/11/10 02:35:03;;;;;;;0.30;0.30;;;11.50;99.90;;;;;;5104128;28;20584;-61
2023/11/10 02:37:30;;;;;;;0.90;0.40;;;11.50;99.90;;;;;;5100765;28;20196;-62
2023/11/10 02:39:56;;;;;;;0.87;0.50;;;12.00;99.90;;;;;;5100809;28;20228;-61
2023/11/10 02:42:24;;;;;;;0.30;0.30;;;11.50;99.90;;;;;;5103763;28;20233;-62
2023/11/10 02:44:51;;;;;;;5.07;0.50;;;11.60;99.90;;;;;;5103928;28;20204;-61
2023/11/10 02:47:18;;;;;;;0.60;0.37;;;11.60;99.90;;;;;;5101586;28;20677;-62
2023/11/10 02:49:44;;;;;;;0.63;0.60;;;11.60;99.90;;;;;;5100342;28;20709;-65
2023/11/10 02:52:11;;;;;;;0.30;0.23;;;11.60;99.90;;;;;;5101643;28;20215;-61
2023/11/10 02:54:38;;;;;;;0.80;0.40;;;11.60;99.90;;;;;;5103893;28;20199;-61
2023/11/10 02:57:05;;;;;;;2.43;0.80;;;11.70;99.90;;;;;;5103443;28;20204;-61
2023/11/10 02:59:33;;;;;;;0.63;0.40;;;11.60;99.90;;;;;;5099602;28;20222;-61
2023/11/10 03:01:59;;;;;;;0.97;0.50;;;11.60;99.90;;;;;;5100497;28;20227;-61
2023/11/10 03:04:27;;;;;;;0.37;0.30;;;11.50;99.90;;;;;;5103481;28;20203;-61
2023/11/10 03:06:54;;;;;;;1.03;0.43;;;11.60;99.90;;;;;;5103594;28;20260;-61
2023/11/10 03:09:22;;;;;;;0.90;0.40;;;11.60;99.90;;;;;;5101077;28;20226;-61
2023/11/10 03:11:49;;;;;;;0.33;0.30;;;11.60;99.90;;;;;;5100252;28;20200;-60
2023/11/10 03:14:16;;;;;;;0.43;0.40;;;11.50;99.90;;;;;;5101786;28;20200;-61
2023/11/10 03:16:44;;;;;;;0.67;0.50;;;11.50;99.90;;;;;;5103674;28;20208;-62
2023/11/10 03:19:11;;;;;;;0.67;0.40;;;11.50;99.90;;;;;;5101901;28;20296;-61
2023/11/10 03:21:38;;;;;;;1.03;0.47;;;11.50;99.90;;;;;;5099806;28;20219;-61
2023/11/10 03:24:06;;;;;;;1.87;0.60;;;11.60;99.90;;;;;;5100156;28;20287;-60
2023/11/10 03:26:32;;;;;;;1.00;0.50;;;11.60;99.90;;;;;;5103457;28;20204;-62
2023/11/10 03:29:01;;;;;;;0.50;0.30;;;11.50;99.90;;;;;;5103281;28;20581;-60
2023/11/10 03:31:29;;;;;;;1.43;0.50;;;11.50;99.90;;;;;;5099971;28;20649;-61
2023/11/10 03:33:57;;;;;;;0.33;0.30;;;11.60;99.90;;;;;;5099686;28;20265;-61
2023/11/10 03:36:24;;;;;;;1.00;0.37;;;11.50;99.90;;;;;;5103191;28;20211;-61
2023/11/10 03:38:51;;;;;;;0.67;0.30;;;11.40;99.90;;;;;;5103242;28;20203;-61
2023/11/10 03:41:18;;;;;;;0.40;0.37;;;11.50;99.90;;;;;;5101425;28;20311;-61
2023/11/10 03:43:45;;;;;;;1.27;0.40;;;11.40;99.90;;;;;;5099632;28;20201;-61
2023/11/10 03:46:12;;;;;;;0.60;0.30;;;11.40;99.90;;;;;;5100894;28;20232;-61
2023/11/10 03:48:39;;;;;;;1.50;0.23;;;11.30;99.90;;;;;;5102869;28;20208;-61
2023/11/10 03:51:10;;;;;;;0.53;0.40;;;11.30;99.90;;;;;;5102668;28;20258;-61
2023/11/10 03:53:37;;;;;;;0.73;0.30;;;11.30;99.90;;;;;;5099574;28;20228;-61
2023/11/10 03:56:04;;;;;;;0.93;0.30;;;11.30;99.90;;;;;;5099535;28;20212;-61
2023/11/10 03:58:31;;;;;;;0.60;0.37;;;11.30;99.90;;;;;;5102940;28;20210;-61
2023/11/10 04:00:58;;;;;;;0.40;0.30;;;11.20;99.90;;;;;;5102596;28;20274;-60
2023/11/10 04:03:25;;;;;;;1.80;0.43;;;11.20;99.90;;;;;;5099910;28;20317;-61
2023/11/10 04:05:51;;;;;;;0.70;0.43;;;11.20;99.90;;;;;;5099579;28;20205;-61
2023/11/10 04:08:19;;;;;;;1.10;0.50;;;11.20;99.90;;;;;;5101299;28;20211;-61
2023/11/10 04:10:47;;;;;;;0.67;0.53;;;11.20;99.90;;;;;;5104963;28;20223;-61
2023/11/10 04:13:14;;;;;;;0.60;0.20;;;11.20;99.90;;;;;;5105432;28;20212;-61
2023/11/10 04:15:40;;;;;;;1.47;0.30;;;11.20;99.90;;;;;;5103429;28;20291;-61
2023/11/10 04:18:07;;;;;;;1.30;0.73;;;11.20;99.90;;;;;;5103766;28;20678;-61
2023/11/10 04:20:35;;;;;;;0.43;0.23;;;11.30;99.90;;;;;;5111482;28;20677;-59
2023/11/10 04:23:01;;;;;;;0.87;0.20;;;11.30;99.90;;;;;;5103153;28;20277;-61
2023/11/10 04:25:30;;;;;;;0.20;0.20;;;11.40;99.90;;;;;;5106579;28;20255;-61
2023/11/10 04:27:58;;;;;;;0.50;0.10;;;11.40;99.90;;;;;;5106851;28;20211;-61
2023/11/10 04:30:24;;;;;;;3.47;2.17;;;11.40;99.90;;;;;;5103629;28;20242;-60
2023/11/10 04:32:52;;;;;;;1.90;0.70;;;11.40;99.90;;;;;;5103108;28;20207;-61
2023/11/10 04:35:18;;;;;;;1.53;1.07;;;11.40;99.90;;;;;;5105154;28;20212;-61
2023/11/10 04:37:45;;;;;;;1.07;0.67;;;11.50;99.90;;;;;;5106563;28;20241;-61
2023/11/10 04:40:12;;;;;;;1.23;0.90;;;11.50;99.90;;;;;;5105324;28;20712;-61
2023/11/10 04:42:41;;;;;;;0.87;0.40;;;11.40;99.90;;;;;;5102664;28;20216;-61
2023/11/10 04:45:09;;;;;;;2.40;0.50;;;11.40;99.90;;;;;;5103102;28;20212;-61
2023/11/10 04:47:36;;;;;;;0.87;0.70;;;11.40;99.90;;;;;;5106662;28;20204;-61
2023/11/10 04:50:02;;;;;;;2.57;0.93;;;11.50;99.90;;;;;;5106135;28;20226;-62
2023/11/10 04:52:29;;;;;;;0.60;0.40;;;11.50;99.90;;;;;;5102783;28;20192;-61
2023/11/10 04:54:56;;;;;;;1.07;0.50;;;11.40;99.90;;;;;;5102704;28;20211;-61
2023/11/10 04:57:24;;;;;;;0.90;0.53;;;11.50;99.90;;;;;;5105155;28;20208;-61
2023/11/10 04:59:54;;;;;;;1.60;0.40;;;11.50;99.90;;;;;;5106161;28;20234;-62
2023/11/10 05:02:20;;;;;;;0.40;0.20;;;11.40;99.90;;;;;;5104099;28;20258;-62
2023/11/10 05:04:47;;;;;;;1.90;1.70;;;11.40;99.90;;;;;;5102579;28;20226;-61
2023/11/10 05:07:14;;;;;;;1.17;0.90;;;11.40;99.90;;;;;;5103665;28;20215;-61
2023/11/10 05:09:41;;;;;;;0.77;0.47;;;11.30;99.90;;;;;;5105840;28;20220;-62
2023/11/10 05:12:08;;;;;;;1.90;1.70;;;11.30;99.90;;;;;;5105517;28;20692;-61
2023/11/10 05:14:39;;;;;;;1.27;0.90;;;11.30;99.90;;;;;;5102289;28;20258;-61
2023/11/10 05:17:08;;;;;;;0.90;0.57;;;11.30;99.90;;;;;;5102521;28;20208;-60
2023/11/10 05:19:34;;;;;;;1.63;1.10;;;11.30;99.90;;;;;;5094307;28;20227;-61
2023/11/10 05:22:01;;;;;;;0.63;0.53;;;11.40;99.90;;;;;;5101453;28;20217;-61
2023/11/10 05:24:29;;;;;;;1.10;0.40;;;11.50;99.90;;;;;;5104961;28;20577;-61
2023/11/10 05:26:56;;;;;;;0.30;0.30;;;11.40;99.90;;;;;;5105855;28;20203;-60
2023/11/10 05:29:23;;;;;;;0.40;0.20;;;11.40;99.90;;;;;;5103164;28;20246;-61
2023/11/10 05:31:49;;;;;;;0.93;0.30;;;11.40;99.90;;;;;;5102030;28;20409;-61
2023/11/10 05:34:17;;;;;;;1.50;0.80;;;11.30;99.90;;;;;;5103304;28;20211;-61
2023/11/10 05:36:44;;;;;;;1.70;1.10;;;11.40;99.90;;;;;;5105547;28;20210;-63
2023/11/10 05:39:11;;;;;;;2.03;0.60;;;11.40;99.90;;;;;;5104773;28;20231;-62
2023/11/10 05:41:40;;;;;;;0.43;0.33;;;11.40;99.90;;;;;;5101979;28;20231;-61
2023/11/10 05:44:07;;;;;;;1.37;0.90;;;11.40;99.90;;;;;;5101437;28;20208;-60
2023/11/10 05:46:34;;;;;;;1.00;0.80;;;11.30;99.90;;;;;;5105135;28;20303;-59
2023/11/10 05:49:00;;;;;;;1.00;0.80;;;11.30;99.90;;;;;;5104936;28;20203;-61
2023/11/10 05:51:29;;;;;;;0.50;0.30;;;11.40;99.90;;;;;;5102094;28;20215;-61
2023/11/10 05:53:55;;;;;;;0.33;0.33;;;11.30;99.90;;;;;;5101508;28;20317;-61
2023/11/10 05:56:24;;;;;;;3.93;2.83;;;11.30;99.90;;;;;;5103694;28;20204;-61
2023/11/10 05:58:51;;;;;;;0.93;0.53;;;11.30;99.90;;;;;;5104884;28;20672;-61
2023/11/10 06:01:23;;;;;;;1.00;0.50;;;11.30;99.90;;;;;;5103244;28;20668;-63
2023/11/10 06:03:50;;;;;;;0.67;0.60;;;11.20;99.90;;;;;;5101344;28;20220;-61
2023/11/10 06:06:17;;;;;;;1.50;0.63;;;11.20;99.90;;;;;;5102765;28;20208;-61
2023/11/10 06:08:45;;;;;;;1.77;1.33;;;11.20;99.90;;;;;;5105030;28;20196;-60
2023/11/10 06:11:20;;;;;;;1.43;0.80;;;11.20;99.90;;;;;;5104295;28;20238;-63
2023/11/10 06:13:48;;;;;;;5.93;2.97;;;11.20;99.90;;;;;;5101032;28;20228;-64
2023/11/10 06:16:15;;;;;;;2.00;1.10;;;11.20;99.90;;;;;;5102063;28;20289;-63
2023/11/10 06:18:42;;;;;;;0.40;0.23;;;11.30;99.90;;;;;;5104442;28;20199;-63
2023/11/10 06:21:09;;;;;;;1.33;0.83;;;11.30;99.90;;;;;;5104762;28;20238;-64
2023/11/10 06:23:36;;;;;;;0.53;0.53;;;11.30;99.90;;;;;;5104299;28;20257;-62
2023/11/10 06:26:06;;;;;;;0.87;0.43;;;11.30;99.90;;;;;;5104826;28;20286;-62
2023/11/10 06:28:32;;;;;;;1.20;0.60;;;11.30;99.90;;;;;;5100952;28;20204;-62
2023/11/10 06:30:59;;;;;;;1.30;0.70;;;11.30;99.90;;;;;;5101153;28;20235;-62
2023/11/10 06:33:26;;;;;;;1.03;0.50;;;11.30;99.90;;;;;;5103213;28;20657;-62
2023/11/10 06:35:52;;;;;;;2.87;1.70;;;11.30;99.90;;;;;;5104457;28;20348;-62
2023/11/10 06:38:19;;;;;;;2.23;1.17;;;11.30;99.90;;;;;;5102586;28;20214;-62
2023/11/10 06:40:46;;;;;;;3.17;0.80;;;11.20;99.90;;;;;;5100985;28;20216;-62
2023/11/10 06:43:14;;;;;;;0.83;0.73;;;11.20;99.90;;;;;;5100636;28;20216;-62
2023/11/10 06:45:41;;;;;;;2.63;1.50;;;11.20;99.90;;;;;;5100587;28;20197;-62
2023/11/10 06:48:07;;;;;;;1.97;0.53;;;11.30;99.90;;;;;;5100317;28;20204;-62
2023/11/10 06:50:35;;;;;;;2.90;0.90;;;11.30;99.90;;;;;;5100521;28;20222;-62
2023/11/10 06:53:01;;;;;;;2.80;0.77;;;11.30;99.90;;;;;;5100260;28;20200;-61
2023/11/10 06:55:28;;;;;;;2.67;0.90;;;11.20;99.90;;;;;;5103052;28;20211;-62
2023/11/10 06:57:55;;;;;;;0.47;0.47;;;11.10;99.90;;;;;;5103731;28;20581;-62
2023/11/10 07:00:26;;;;;;;0.43;0.43;;;11.20;99.90;;;;;;5101580;28;20709;-65
2023/11/10 07:02:56;;;;;;;1.33;0.50;;;11.10;99.90;;;;;;5099715;28;20575;-62
2023/11/10 07:05:25;;;;;;;1.23;0.53;;;11.20;99.90;;;;;;5102509;28;20211;-61
2023/11/10 07:07:52;;;;;;;1.60;0.70;;;11.30;99.90;;;;;;5103740;28;20211;-61
2023/11/10 07:10:19;;;;;;;1.73;0.50;;;11.30;99.90;;;;;;5101961;28;20227;-62
2023/11/10 07:12:46;;;;;;;1.93;0.40;;;11.40;99.90;;;;;;5099894;28;20645;-61
2023/11/10 07:15:12;;;;;;;7.17;6.33;;;11.50;99.90;;;;;;5100436;28;20212;-64
2023/11/10 07:17:42;;;;;;;1.20;0.70;;;11.60;99.90;;;;;;5103738;28;20202;-62
2023/11/10 07:20:11;;;;;;;1.20;0.73;;;11.70;99.90;;;;;;5102918;28;20277;-62
2023/11/10 07:22:38;;;;;;;1.20;0.60;;;11.70;99.90;;;;;;5091876;28;20244;-62
2023/11/10 07:25:06;;;;;;;1.53;0.50;;;11.80;99.90;;;;;;5099729;28;20582;-62
2023/11/10 07:27:33;;;;;;;1.30;0.70;;;11.80;99.90;;;;;;5103055;28;20282;-62
2023/11/10 07:30:00;;;;;;;0.83;0.40;;;11.80;99.90;;;;;;5103290;28;20235;-62
2023/11/10 07:32:27;;;;;;;1.40;0.40;;;11.70;99.90;;;;;;5100720;28;20203;-62
2023/11/10 07:34:55;;;;;;;0.70;0.53;;;11.50;99.90;;;;;;5099424;28;20707;-61
2023/11/10 07:37:22;;;;;;;0.70;0.53;;;11.40;99.90;;;;;;5101197;28;20201;-60
2023/11/10 07:39:49;;;;;;;1.07;0.40;;;11.20;99.90;;;;;;5102656;28;20223;-62
2023/11/10 07:42:16;;;;;;;1.83;0.80;;;11.10;99.90;;;;;;5102114;28;20688;-62
2023/11/10 07:44:43;;;;;;;1.20;0.53;;;11.10;99.90;;;;;;5099234;28;20241;-62
2023/11/10 07:47:10;;;;;;;0.77;0.50;;;11.10;99.90;;;;;;5099939;28;20207;-62
2023/11/10 07:49:37;;;;;;;2.10;0.60;;;11.20;99.90;;;;;;5091328;28;20739;-62
2023/11/10 07:52:06;;;;;;;4.17;0.83;;;11.40;99.90;;;;;;5099545;28;20210;-63
2023/11/10 07:54:33;;;;;;;4.10;0.63;;;11.60;99.90;;;;;;5102044;28;20249;-62
2023/11/10 07:57:00;;;;;;;0.73;0.23;;;11.80;99.90;;;;;;5103197;28;20665;-62
2023/11/10 07:59:27;;;;;;;0.30;0.30;;;11.90;99.90;;;;;;5100615;28;20223;-62
2023/11/10 08:01:54;;;;;;;2.10;1.80;;;12.00;99.90;;;;;;5099414;28;20250;-64
2023/11/10 08:04:21;;;;;;;0.43;0.30;;;12.10;99.90;;;;;;5100405;28;20705;-61
2023/11/10 08:06:48;;;;;;;1.00;0.60;;;12.20;99.90;;;;;;5103109;28;20576;-63
2023/11/10 08:09:16;;;;;;;3.30;2.50;;;12.10;99.90;;;;;;5101866;28;20725;-63
2023/11/10 08:11:43;;;;;;;3.43;1.63;;;12.00;99.90;;;;;;5099640;28;20203;-62
2023/11/10 08:14:10;;;;;;;0.73;0.63;;;12.00;99.90;;;;;;5099494;28;20621;-62
2023/11/10 08:16:37;;;;;;;1.93;0.60;;;12.10;99.90;;;;;;5099632;28;20204;-60
2023/11/10 08:19:04;;;;;;;0.73;0.50;;;12.20;99.90;;;;;;5099259;28;20204;-63
2023/11/10 08:21:31;;;;;;;0.50;0.50;;;12.40;99.90;;;;;;5102361;28;20227;-63
2023/11/10 08:23:58;;;;;;;0.50;0.40;;;12.40;99.90;;;;;;5102858;28;20323;-63
2023/11/10 08:26:25;;;;;;;2.07;1.63;;;12.30;99.90;;;;;;5101324;28;20214;-61
2023/11/10 08:28:51;;;;;;;1.63;1.03;;;12.40;99.90;;;;;;5099179;28;20612;-64
2023/11/10 08:31:20;;;;;;;1.07;0.87;;;12.50;99.90;;;;;;5100163;28;20206;-62
2023/11/10 08:33:47;;;;;;;1.00;0.40;;;12.50;99.90;;;;;;5102730;28;20702;-60
2023/11/10 08:36:14;;;;;;;0.63;0.40;;;12.60;99.90;;;;;;5102163;28;20207;-60
2023/11/10 08:38:41;;;;;;;0.67;0.50;;;12.50;99.90;;;;;;5098894;28;20651;-60
2023/11/10 08:41:12;;;;;;;0.37;0.37;;;12.50;99.90;;;;;;5099249;28;20599;-60
2023/11/10 08:43:41;;;;;;;1.93;0.50;;;12.40;99.90;;;;;;5090956;28;20303;-61
2023/11/10 08:46:08;;;;;;;3.23;0.60;;;12.50;99.90;;;;;;5099388;28;20211;-61
2023/11/10 08:48:35;;;;;;;2.93;0.50;;;12.60;99.90;;;;;;5102018;28;20203;-60
2023/11/10 08:51:02;;;;;;;4.53;0.87;;;12.60;99.90;;;;;;5102585;28;20227;-61
2023/11/10 08:53:29;;;;;;;1.23;0.53;;;12.60;99.90;;;;;;5099876;28;20210;-61
2023/11/10 08:55:57;;;;;;;0.50;0.40;;;12.60;99.90;;;;;;5099025;28;20232;-61
2023/11/10 08:58:24;;;;;;;1.27;0.47;;;12.50;99.90;;;;;;5103346;28;20642;-60
2023/11/10 09:00:52;;;;;;;0.60;0.40;;;12.50;99.90;;;;;;5106139;28;20226;-60
2023/11/10 09:03:19;;;;;;;1.27;0.60;;;12.70;99.90;;;;;;5104974;28;20277;-62
2023/11/10 09:05:46;;;;;;;1.57;0.57;;;12.80;99.90;;;;;;5102686;28;20206;-59
2023/11/10 09:08:13;;;;;;;1.17;0.83;;;13.00;99.90;;;;;;5102472;28;20207;-60
2023/11/10 09:10:40;;;;;;;0.97;0.50;;;13.00;99.90;;;;;;5094250;28;20220;-60
2023/11/10 09:13:07;;;;;;;1.73;1.00;;;13.00;99.90;;;;;;5102245;28;20223;-60
2023/11/10 09:15:35;;;;;;;0.43;0.40;;;13.10;99.90;;;;;;5105167;28;20248;-60
2023/11/10 09:18:03;;;;;;;0.60;0.40;;;13.10;99.90;;;;;;5105987;28;20211;-60
2023/11/10 09:20:30;;;;;;;1.90;0.50;;;13.20;99.90;;;;;;5102998;28;20235;-64
2023/11/10 09:22:59;;;;;;;4.77;2.30;;;13.30;99.90;;;;;;5101937;28;20216;-60
2023/11/10 09:25:25;;;;;;;0.70;0.50;;;13.40;99.90;;;;;;5103699;28;20665;-59
2023/11/10 09:27:55;;;;;;;1.23;0.67;;;13.60;99.90;;;;;;5105739;28;20214;-58
2023/11/10 09:30:24;;;;;;;2.27;0.57;;;13.80;99.90;;;;;;5103985;28;20265;-58
2023/11/10 09:32:51;;;;;;;0.50;0.40;;;13.80;99.90;;;;;;5102274;28;20208;-59
2023/11/10 09:35:19;;;;;;;0.80;0.40;;;14.10;99.90;;;;;;5102492;28;20208;-59
2023/11/10 09:37:46;;;;;;;0.97;0.40;;;14.30;99.90;;;;;;5105397;28;20199;-59
2023/11/10 09:40:15;;;;;;;1.20;0.40;;;14.40;99.90;;;;;;5105384;28;20227;-59
2023/11/10 09:42:42;;;;;;;0.30;0.20;;;14.40;99.90;;;;;;5093734;28;20232;-59
2023/11/10 09:45:12;;;;;;;2.60;0.40;;;14.20;99.90;;;;;;5101802;28;20731;-58
2023/11/10 09:47:41;;;;;;;0.57;0.40;;;14.10;99.90;;;;;;5093629;28;20197;-58
2023/11/10 09:50:09;;;;;;;2.37;1.27;;;13.90;99.90;;;;;;5101458;28;20255;-58
2023/11/10 09:52:38;;;;;;;1.90;0.53;;;13.70;99.90;;;;;;5104403;28;20199;-59
2023/11/10 09:55:07;;;;;;;1.70;0.33;;;13.50;99.90;;;;;;5105092;28;20203;-58
2023/11/10 09:57:33;;;;;;;1.63;0.60;;;13.30;99.90;;;;;;5102590;28;20215;-58
2023/11/10 10:00:01;;;;;;;0.50;0.30;;;13.20;99.90;;;;;;5101560;28;20224;-58
2023/11/10 10:02:28;;;;;;;3.60;0.57;;;13.30;99.90;;;;;;5103102;28;20228;-58
2023/11/10 10:04:55;;;;;;;4.67;1.30;;;13.60;99.90;;;;;;5104550;28;20696;-58
2023/11/10 10:07:22;;;;;;;2.43;0.90;;;13.90;99.90;;;;;;5103779;28;20203;-59
2023/11/10 10:09:50;;;;;;;1.03;0.50;;;14.10;99.90;;;;;;5101068;28;20319;-59
2023/11/10 10:12:17;;;;;;;2.07;1.20;;;14.20;99.90;;;;;;5101470;28;20201;-59
2023/11/10 10:14:54;;;;;;;1.00;0.50;;;14.40;99.90;;;;;;5104688;28;20287;-59
2023/11/10 10:17:20;;;;;;;4.03;0.47;;;14.30;99.90;;;;;;5103911;28;20231;-59
2023/11/10 10:19:49;;;;;;;2.33;1.10;;;14.20;99.90;;;;;;5101193;28;20242;-57
2023/11/10 10:22:23;;;;;;;2.40;0.60;;;14.00;99.90;;;;;;5100815;28;20623;-57
2023/11/10 10:24:51;;;;;;;0.43;0.30;;;13.80;99.90;;;;;;5104239;28;20307;-58
2023/11/10 10:27:18;;;;;;;0.60;0.40;;;13.50;99.90;;;;;;5103790;28;20204;-58
2023/11/10 10:29:45;;;;;;;1.60;0.40;;;13.20;99.90;;;;;;5101142;28;20241;-58
2023/11/10 10:32:11;;;;;;;0.30;0.20;;;13.10;99.90;;;;;;5101097;28;20200;-58
2023/11/10 10:34:39;;;;;;;0.63;0.40;;;13.00;99.90;;;;;;5103662;28;20580;-58
2023/11/10 10:37:05;;;;;;;2.00;0.50;;;13.00;99.90;;;;;;5104151;28;20257;-59
2023/11/10 10:39:32;;;;;;;2.37;1.13;;;13.10;99.90;;;;;;5102154;28;20272;-57
2023/11/10 10:42:06;;;;;;;3.90;1.20;;;13.00;99.90;;;;;;5100478;28;20205;-58
2023/11/10 10:44:35;;;;;;;0.70;0.43;;;13.00;99.90;;;;;;5102624;28;20657;-58
2023/11/10 10:47:03;;;;;;;0.43;0.20;;;13.00;99.90;;;;;;5104140;28;20250;-58
2023/11/10 10:49:32;;;;;;;1.03;0.50;;;12.90;99.90;;;;;;5101962;28;20224;-58
2023/11/10 10:52:01;;;;;;;3.00;0.73;;;13.00;99.90;;;;;;5100891;28;20258;-57
2023/11/10 10:54:27;;;;;;;1.53;0.67;;;13.00;99.90;;;;;;5101999;28;20205;-58
2023/11/10 10:56:56;;;;;;;0.73;0.30;;;13.10;99.90;;;;;;5103931;28;20203;-58
2023/11/10 10:59:27;;;;;;;0.43;0.17;;;13.30;99.90;;;;;;5102727;28;20276;-57
2023/11/10 11:01:54;;;;;;;2.37;0.90;;;13.30;99.90;;;;;;5100346;28;20215;-58
2023/11/10 11:04:29;;;;;;;1.73;0.90;;;13.30;99.90;;;;;;5100870;28;20251;-58
2023/11/10 11:07:23;;;;;;;0.70;0.47;;;13.30;99.90;;;;;;5103828;28;20210;-58
2023/11/10 11:10:15;;;;;;;2.40;0.80;;;13.10;99.90;;;;;;5092947;28;20228;-58
2023/11/10 11:13:09;;;;;;;1.10;0.60;;;13.10;99.90;;;;;;5091824;28;20200;-58
2023/11/10 11:15:48;;;;;;;1.80;0.70;;;13.20;99.90;;;;;;5092895;28;20208;-58
2023/11/10 11:18:29;;;;;;;1.10;0.50;;;13.30;99.90;;;;;;5103363;28;20668;-58
2023/11/10 11:20:56;;;;;;;1.03;0.30;;;13.50;99.90;;;;;;5092659;28;20790;-58
2023/11/10 11:23:23;;;;;;;2.07;0.40;;;13.50;99.90;;;;;;5100657;28;20699;-58
2023/11/10 11:25:58;;;;;;;2.47;1.00;;;13.60;99.90;;;;;;5103246;28;20207;-58
2023/11/10 11:28:28;;;;;;;1.93;0.70;;;13.80;99.90;;;;;;5102215;28;20242;-57
2023/11/10 11:31:10;;;;;;;1.33;0.53;;;13.80;99.90;;;;;;5099868;28;20800;-58
2023/11/10 11:33:45;;;;;;;1.77;0.97;;;13.90;99.90;;;;;;5102139;28;20200;-58
2023/11/10 11:36:14;;;;;;;1.03;0.70;;;13.90;99.90;;;;;;5102927;28;20214;-58
2023/11/10 11:38:41;;;;;;;1.00;0.60;;;14.00;99.90;;;;;;5099537;28;20637;-58
2023/11/10 11:41:09;;;;;;;1.67;0.70;;;14.10;99.90;;;;;;5099562;28;20273;-58
2023/11/10 11:43:35;;;;;;;2.30;0.30;;;14.10;99.90;;;;;;5101854;28;20267;-58
2023/11/10 11:46:04;;;;;;;1.23;0.60;;;14.20;99.90;;;;;;5103095;28;20692;-59
2023/11/10 11:48:35;;;;;;;1.33;0.50;;;14.40;99.90;;;;;;5101073;28;20203;-58
2023/11/10 11:51:03;;;;;;;1.40;0.60;;;14.60;99.90;;;;;;5099449;28;20658;-58
2023/11/10 11:53:31;;;;;;;3.93;0.57;;;14.80;99.90;;;;;;5101012;28;20232;-58
2023/11/10 11:55:57;;;;;;;2.10;1.40;;;14.80;99.90;;;;;;5102874;28;20211;-58
2023/11/10 11:58:25;;;;;;;1.63;0.80;;;14.90;99.90;;;;;;5101763;28;20557;-59
2023/11/10 12:00:53;;;;;;;1.90;0.50;;;15.20;99.90;;;;;;5099644;28;20220;-58
2023/11/10 12:03:20;;;;;;;1.20;0.47;;;15.40;99.90;;;;;;5099630;28;20666;-58
2023/11/10 12:05:48;;;;;;;0.45;0.43;;;15.60;99.90;;;;;;5102846;28;20211;-58
2023/11/10 12:08:16;;;;;;;1.70;0.70;;;15.80;99.90;;;;;;5102880;28;20590;-58
2023/11/10 12:10:45;;;;;;;1.30;0.40;;;15.90;99.90;;;;;;5099194;28;20220;-58
2023/11/10 12:13:13;;;;;;;0.73;0.60;;;15.90;99.90;;;;;;5099417;28;20300;-58
2023/11/10 12:15:41;;;;;;;2.27;0.53;;;16.00;99.90;;;;;;5102445;28;20195;-57
2023/11/10 12:18:08;;;;;;;2.25;1.25;;;15.90;99.90;;;;;;5102993;28;20234;-58
2023/11/10 12:20:35;;;;;;;2.05;0.60;;;15.90;99.90;;;;;;5100376;28;20276;-58
2023/11/10 12:23:04;;;;;;;1.10;0.73;;;15.70;99.90;;;;;;5098807;28;20646;-58
2023/11/10 12:25:36;;;;;;;1.07;0.50;;;15.50;99.90;;;;;;5101049;28;20748;-60
2023/11/10 12:28:03;;;;;;;2.78;0.43;;;15.60;99.90;;;;;;5102654;28;20638;-58
2023/11/10 12:30:30;;;;;;;2.63;0.73;;;15.60;99.90;;;;;;5100748;28;20223;-58
2023/11/10 12:32:57;;;;;;;2.10;0.40;;;15.60;99.90;;;;;;5103897;28;20204;-58
2023/11/10 12:35:24;;;;;;;1.03;0.60;;;15.50;99.90;;;;;;5103929;28;20196;-59
2023/11/10 12:37:53;;;;;;;0.77;0.50;;;15.50;99.90;;;;;;5106951;28;20274;-60
2023/11/10 12:40:22;;;;;;;0.50;0.40;;;15.30;99.90;;;;;;5106871;28;20223;-59
2023/11/10 12:42:49;;;;;;;2.03;0.73;;;14.90;99.90;;;;;;5102872;28;20212;-58
2023/11/10 12:45:17;;;;;;;4.67;1.87;;;14.50;99.90;;;;;;5103487;28;20220;-57
2023/11/10 12:47:49;;;;;;;1.73;0.40;;;14.20;99.90;;;;;;5106575;28;20200;-58
2023/11/10 12:50:19;;;;;;;2.40;0.60;;;14.00;99.90;;;;;;5106478;28;20239;-58